Fábio Alves

Chefscout - Juventude
25 Nov 2027
Donnerstag
Verarbeitung

Persönlichkeit

Anpassungsfähigkeit (1) Ehrgeiz (3) Kontroverse (9) Loyalität (7) Druck (1) Professionalität (13) Fairness (19) Temperament (1)

Profil

Trainerstil Demokratisch
Lizenz Kontinentale B
Entschlossenheit 4
Menschenführung 9
Motivation 9
Disziplin 4
Arbeitszufriedenheit
100%
Ermüdung
0%
Rolle Chefscout
Gehalt 86.8K p/W
Vertrag 14.03.2029

Leistung

Verhalten Gut
Trainingseffektivität
34%
Spielerentwicklung
50%
Verletzungsprävention
55%
Taktische Umsetzung
25%

Letzte Ereignisse

Spieler begutachtet jetzt
Nahm an einer Scouting-Besprechung teil jetzt
Nahm an einer Scouting-Besprechung teil jetzt
Nahm an einer Scouting-Besprechung teil jetzt
Empfahl ein Transferziel jetzt
Empfahl ein Transferziel jetzt
Empfahl ein Transferziel jetzt
Empfahl ein Transferziel jetzt

Aktuell beobachtet

221
Spieler Verein Status Fähigkeit Vertrauen Beobachtet Zuletzt beobachtet Letzte Stimme
Wessam Abou Ali Columbus Crew Aktiv 142 / 133 40% 2 22.11.2027 -
Tomás Aranda Boca Juniors Aktiv 107 / 122 40% 2 22.11.2027 -
Ruben Ramos LA Galaxy Aktiv 99 / 117 40% 2 22.11.2027 -
Alexander Díaz Deportivo Riestra Aktiv 133 / 116 40% 1 22.11.2027 -
João Abreu Porto Aktiv 86 / 115 40% 2 20.11.2027 -
Francisco Rincon Llaneros Aktiv 110 / 101 40% 2 20.11.2027 -
Mateus Mide Porto Aktiv 96 / 116 40% 1 19.11.2027 -
Gonçalo Moreira Benfica Aktiv 117 / 133 40% 1 19.11.2027 -
Fredrik Ardraa Stromsgodset Aktiv 113 / 112 40% 3 18.11.2027 -
Mads Bomholt Stabaek Aktiv 108 / 110 40% 1 18.11.2027 -
Olívio Tomé Benfica Aktiv 113 / 114 40% 2 17.11.2027 -
Matheus Nascimento FC Dallas Aktiv 136 / 128 40% 2 16.11.2027 -
Morgan Guilavogui Real Salt Lake Aktiv 116 / 126 40% 1 16.11.2027 -
Matías Sosa Arsenal Aktiv 109 / 106 40% 2 14.11.2027 -
Fabricio Rojas Gimnasia y Tiro Aktiv 121 / 105 40% 3 14.11.2027 -
Juan Cruz de los Santos Nacional Aktiv 127 / 121 40% 2 13.11.2027 -
Federico Martínez Liverpool Montevideo Aktiv 121 / 110 40% 1 13.11.2027 -
Gianluca Pugliese Güemes Aktiv 119 / 116 40% 3 12.11.2027 -
Armindo Sieb Los Angeles Football Club Aktiv 128 / 122 40% 3 12.11.2027 -
Alejo Cruz Juventud Aktiv 134 / 120 40% 7 08.11.2027 -
Luca Martínez Dupuy Godoy Cruz Aktiv 129 / 121 40% 1 08.11.2027 -
Cheikh Sabaly Vancouver Whitecaps Aktiv 123 / 116 40% 3 07.11.2027 -
Luca Langoni Colorado Rapids Aktiv 147 / 135 40% 4 06.11.2027 -
Duncan McGuire Houston Dynamo Aktiv 137 / 125 40% 2 06.11.2027 -
Hassan Beja AFC Leopards Aktiv 89 / 85 40% 3 06.11.2027 -
Franco Minerva Platense Aktiv 107 / 124 40% 1 06.11.2027 -
Santiago Sala Güemes Aktiv 121 / 113 40% 2 04.11.2027 -
Duarte Cunha Porto Aktiv 106 / 100 40% 2 04.11.2027 -
Franco Tejera Oriental Aktiv 88 / 84 40% 1 04.11.2027 -
Lucas Carrizo Plaza Colonia Aktiv 124 / 116 40% 1 04.11.2027 -
Negueba Mirassol Aktiv 138 / 119 40% 4 03.11.2027 -
Eric Ramírez Llaneros Aktiv 118 / 112 40% 2 03.11.2027 -
Rafael Navarro St. Louis CITY SC Aktiv 123 / 125 40% 5 01.11.2027 -
Martín Ojeda Orlando City Aktiv 129 / 130 40% 2 30.10.2027 -
Lisandro Cabrera Maipú Aktiv 126 / 111 40% 2 30.10.2027 -
André Miranda Porto Aktiv 110 / 121 40% 1 29.10.2027 -
Kévin Denkey FC Cincinnati Aktiv 114 / 133 40% 1 29.10.2027 -
Antony Alonso Deportivo Riestra Aktiv 112 / 119 40% 1 29.10.2027 -
Tadeo Allende Inter Miami CF Aktiv 129 / 126 40% 1 28.10.2027 -
Alex Amaefula Kun Khalifat Aktiv 85 / 84 40% 3 26.10.2027 -
Tiziano Dornell Danubio Aktiv 105 / 119 40% 2 26.10.2027 -
Louis Munteanu DC United Aktiv 124 / 138 40% 1 26.10.2027 -
Wilfred Correa Caracas Aktiv 90 / 102 40% 1 26.10.2027 -
Francisco Triver River Plate Aktiv 84 / 98 40% 2 23.10.2027 -
Leonardo Campana New England Revolution Aktiv 117 / 122 40% 6 23.10.2027 -
Dejan Joveljić Seattle Sounders Aktiv 139 / 129 40% 3 19.10.2027 -
Jeong Sang-Bin St. Louis CITY SC Aktiv 112 / 126 40% 1 19.10.2027 -
Gabriel Mec Porto Aktiv 118 / 135 40% 2 18.10.2027 -
Alexis Cuello San Lorenzo Aktiv 129 / 128 40% 3 18.10.2027 -
Jorge Obregón Deportivo Pasto Aktiv 114 / 108 40% 3 16.10.2027 -
Luciano Cosentino Wanderers Aktiv 120 / 126 40% 1 16.10.2027 -
Kevin Méndez Dinamo Tbilisi Aktiv 124 / 106 40% 1 15.10.2027 -
Jesus Ferreira Seattle Sounders Aktiv 136 / 133 40% 1 15.10.2027 -
Adriangel Torrealba Llaneros Aktiv 85 / 86 40% 1 15.10.2027 -
Bahia Criciuma Aktiv 111 / 126 40% 1 10.10.2027 -
Kauã Moraes Cruzeiro Aktiv 135 / 126 40% 1 07.10.2027 -
Jonathan Cañete Portuguesa Aktiv 124 / 112 40% 3 06.10.2027 -
Timo Werner San Jose Earthquakes Aktiv 128 / 135 40% 2 04.10.2027 -
Mateo Peralta Danubio Aktiv 117 / 117 40% 2 02.10.2027 -
Wisdom Udom Bendel Insurance Aktiv 76 / 97 40% 1 02.10.2027 -
Emmanuel Sabbi Vancouver Whitecaps Aktiv 134 / 123 40% 1 02.10.2027 -
Daniel Ferraresi Llaneros Aktiv 87 / 85 40% 2 29.09.2027 -
Luciano Inverso Rentistas Aktiv 117 / 114 40% 1 27.09.2027 -
Jefry Zapata Danubio Aktiv 126 / 120 40% 1 27.09.2027 -
Joel Ezra Enyimba Aktiv 89 / 94 40% 2 25.09.2027 -
Lucas Ríos Atlanta Aktiv 115 / 112 40% 1 23.09.2027 -
Agustín Gallo Tristán Suárez Aktiv 115 / 114 40% 1 23.09.2027 -
Leandro Suhr Boston River Aktiv 129 / 117 40% 1 22.09.2027 -
Bénie Traoré New York City Aktiv 143 / 121 40% 1 22.09.2027 -
Figueiredo Sampaio Correa Aktiv 97 / 96 40% 1 21.09.2027 -
Adalberto Peñaranda Deportivo Tachira Aktiv 114 / 109 40% 2 18.09.2027 -
Diogo Guzmán Montevideo City Torque Aktiv 123 / 117 40% 3 17.09.2027 -
Mustapha Umar Kano Pillars Aktiv 85 / 89 40% 2 17.09.2027 -
Alexis Domínguez Chacarita Juniors Aktiv 107 / 114 40% 1 17.09.2027 -
Juan Rodríguez Wanderers Aktiv 87 / 110 40% 1 13.09.2027 -
Luis Vidal Deportivo Pereira Aktiv 79 / 87 40% 1 13.09.2027 -
Enzo Cabrera Danubio Aktiv 108 / 115 40% 1 11.09.2027 -
Mateo Silvetti Los Angeles Football Club Aktiv 143 / 120 40% 3 09.09.2027 -
Sebastián Cocimano Nueva Chicago Aktiv 119 / 115 40% 1 09.09.2027 -
Juan Román Gimenez Estudiantes Aktiv 88 / 98 40% 2 30.08.2027 -
Luis Otávio Colorado Rapids Aktiv 125 / 113 40% 1 30.08.2027 -
Luke Baartman ES Mostaganem Aktiv 120 / 120 40% 2 29.08.2027 -
Esteban de Lima Tacuarembo Aktiv 93 / 100 40% 2 29.08.2027 -
Maren Kefas Plateau United Aktiv 89 / 95 40% 2 28.08.2027 -
Daniel Awuni Aduana Stars Aktiv 107 / 107 40% 1 27.08.2027 -
Manuel Kissanga Fortuna Mfou Aktiv 89 / 98 40% 1 27.08.2027 -
Lucas Camejo River Plate Aktiv 75 / 91 40% 2 24.08.2027 -
Rasco Abassah Bechem United Aktiv 81 / 74 40% 2 24.08.2027 -
Ibrahim Sabiu Bendel Insurance Aktiv 88 / 90 40% 2 23.08.2027 -
Chinedu Nwosu Bendel Insurance Aktiv 73 / 89 40% 1 22.08.2027 -
Mamoutou Berthé US Bougouba Aktiv 99 / 113 40% 1 19.08.2027 -
Ishmael Addo Heart of Lions Aktiv 103 / 89 40% 1 18.08.2027 -
Davide Bartesaghi AC Milan Aktiv 139 / 147 40% 2 17.08.2027 -
Rodrigo Mora AS Roma Aktiv 126 / 144 40% 1 17.08.2027 -
Sascha Britschgi Padova Aktiv 128 / 132 40% 3 12.08.2027 -
Mattia Rutigliano Pro Vercelli Aktiv 90 / 104 40% 1 12.08.2027 -
Lucas Duré Montevideo City Torque Aktiv 97 / 109 40% 1 11.08.2027 -
Leo Castledine Middlesbrough Aktiv 122 / 131 40% 1 09.08.2027 -
Zane Albarus Cambridge United Aktiv 101 / 103 40% 2 06.08.2027 -
Rayan Demirci Porto Aktiv 103 / 97 40% 1 06.08.2027 -
Leandro Martins Benfica Aktiv 101 / 109 40% 3 05.08.2027 -
Paulo Cardoso Sporting CP Aktiv 92 / 109 40% 1 05.08.2027 -
Tomás Peixoto Porto Aktiv 77 / 94 40% 1 04.08.2027 -
Francisco Fernandes Porto Aktiv 101 / 108 40% 1 04.08.2027 -
Oscar Schwartau Norwich City Aktiv 122 / 138 40% 1 03.08.2027 -
Finley McAllister Grimsby Town Aktiv 93 / 100 40% 1 03.08.2027 -
João Dalla Corte Internacional Aktiv 98 / 104 55% 1 05.07.2027 -
Hwang Hee-Chan Wolverhampton Aktiv 149 / 138 40% 1 28.06.2027 -
Joel McGregor Swindon Town Aktiv 79 / 99 40% 4 16.06.2027 -
Keagan Tau Ajax Cape Town Aktiv 81 / 108 40% 1 16.06.2027 -
Víctor Guzmán Sporting CP Aktiv 83 / 98 40% 1 07.06.2027 -
Mathis Jangeal Famalicao Verhandlung 117 / 114 40% 1 07.06.2027 -
Yuri Alberto Köln Verhandlung 140 / 141 67% 1 01.06.2027 Befürworten
Dion Beljo Standard Liege Verhandlung 131 / 132 66% 1 01.06.2027 Befürworten
João Fonseca Benfica Aktiv 117 / 109 40% 1 31.05.2027 -
Josh Smith Accrington Stanley Aktiv 74 / 92 40% 2 30.05.2027 -
Christos Mouzakitis Hull City Aktiv 131 / 143 40% 2 29.05.2027 -
Yussif Saidu Zaragoza Aktiv 107 / 120 40% 2 29.05.2027 -
Gonçalo Oliveira Benfica Aktiv 127 / 107 40% 3 28.05.2027 -
Rafael Quintas Benfica Aktiv 97 / 94 40% 1 28.05.2027 -
Simone Kosijer Triestina Aktiv 95 / 100 40% 1 27.05.2027 -
Daniel Costa Sporting CP Aktiv 104 / 108 40% 1 27.05.2027 -
Daniel Vernattus Metalist Aktiv 106 / 96 40% 2 26.05.2027 -
Pietro Reggiori Pro Patria Aktiv 102 / 90 40% 1 26.05.2027 -
Adam Bakoune Ospitaletto Aktiv 83 / 97 40% 3 25.05.2027 -
Darryl Bakola Padova Aktiv 97 / 123 40% 1 25.05.2027 -
Martim Cunha Porto Aktiv 110 / 108 40% 1 23.05.2027 -
Dylan Lawlor Cardiff City Aktiv 123 / 116 40% 3 19.05.2027 -
Juan Giménez Celta Aktiv 100 / 125 40% 2 17.05.2027 -
Caleb Yirenkyi Coventry City Aktiv 150 / 135 40% 1 16.05.2027 -
Daniel Kelly Oxford United Aktiv 114 / 121 40% 1 13.05.2027 -
Jofre Torrents Ajax Aktiv 111 / 135 40% 2 10.05.2027 -
Josh King Chelsea Aktiv 130 / 144 40% 1 09.05.2027 -
Ernie Weaver AFC Wimbledon Aktiv 111 / 118 40% 2 04.05.2027 -
Kevin Pinto Benfica Aktiv 100 / 105 40% 1 04.05.2027 -
Matías Gómez Granada Aktiv 114 / 112 40% 1 30.04.2027 -
Kazunari Kita Real Sociedad Aktiv 84 / 95 40% 1 28.04.2027 -
Toni Tamarit Alverca Aktiv 129 / 130 40% 1 25.04.2027 -
Salvador Blopá Casa Pia Aktiv 115 / 123 40% 1 22.04.2027 -
Martim Fernandes Porto Aktiv 126 / 136 40% 3 21.04.2027 -
Cheveyo Tsawa Club Brugge Aktiv 133 / 123 40% 1 16.04.2027 -
Rayhan Momade Sporting CP Aktiv 99 / 90 40% 1 14.04.2027 -
Ibrahim Maza Bayer Leverkusen Aktiv 137 / 153 40% 1 14.04.2027 -
João Capucho Benfica Aktiv 89 / 106 40% 1 13.04.2027 -
Tomás Cruz Benfica Aktiv 94 / 107 40% 1 15.12.2026 -
Amar Memić Casa Pia Verhandlung 127 / 128 62% 1 01.12.2026 Befürworten
Andreas Trimmel Red Bull Salzburg Aktiv 131 / 131 60% 1 01.12.2026 Befürworten
Pau Víctor AVS Aktiv 127 / 138 40% 2 29.11.2026 -
Ole Pohlmann Rio Ave Aktiv 140 / 124 40% 3 29.11.2026 -
Everton Bala Levski Aktiv 120 / 119 40% 1 29.11.2026 -
Manu Pozo Torreense Aktiv 118 / 116 40% 2 27.11.2026 -
Arjan Malić Sturm Graz Aktiv 112 / 115 40% 1 26.11.2026 -
Dinis Rodrigues Porto Aktiv 104 / 100 40% 1 26.11.2026 -
Luis Mina Vizela Aktiv 114 / 114 40% 1 25.11.2026 -
Ianis Stoica Estrela da Amadora Aktiv 117 / 109 40% 2 22.11.2026 -
Alfonso Trezza Arouca Aktiv 136 / 111 40% 1 22.11.2026 -
Yanis Begraoui Estoril Praia Aktiv 137 / 125 40% 4 21.11.2026 -
Taichi Fukui Arouca Aktiv 132 / 134 40% 2 21.11.2026 -
Martín Tejón Maritimo Aktiv 98 / 112 40% 1 19.11.2026 -
Dawda Camara Alverca Aktiv 130 / 119 40% 1 18.11.2026 -
Adnan Courtois KV Oostende Aktiv 119 / 137 40% 1 18.11.2026 -
Víctor Gómez Braga Aktiv 153 / 141 40% 2 15.11.2026 -
Lee Hyun-Ju Arouca Aktiv 135 / 125 40% 1 15.11.2026 -
Figueiredo Alverca Aktiv 120 / 126 40% 7 14.11.2026 -
Ricard Sánchez Estoril Praia Aktiv 114 / 124 40% 2 14.11.2026 -
Lucas Duarte Felgueiras Aktiv 104 / 112 40% 1 14.11.2026 -
Luis Quintero Torreense Aktiv 122 / 128 40% 2 13.11.2026 -
Dylan Nandín Arouca Aktiv 108 / 113 40% 2 12.11.2026 -
Manfred Ugalde Spartak Moscow Aktiv 127 / 131 40% 1 12.11.2026 -
Agustín Módica Gimnasia y Esgrima Aktiv 117 / 116 40% 1 11.11.2026 -
Roberto Fernández Braga Aktiv 147 / 150 40% 2 09.11.2026 Mehr Infos nötig
Ozziel Herrera Tigres Aktiv 124 / 136 40% 1 09.11.2026 -
Zé Leite Leixões Aktiv 110 / 116 40% 2 08.11.2026 -
Santi García Gil Vicente Aktiv 140 / 140 40% 4 07.11.2026 -
João Mendes Vitoria Guimaraes Aktiv 111 / 121 40% 1 07.11.2026 -
William Gomes Porto Aktiv 149 / 153 40% 2 05.11.2026 -
André Lacximicant Estoril Praia Aktiv 94 / 121 40% 1 05.11.2026 -
Henry Mosquera Bragantino Aktiv 125 / 124 40% 2 02.11.2026 Mehr Infos nötig
Lorougnon Gohi Académico de Viseu Aktiv 119 / 110 40% 1 02.11.2026 Mehr Infos nötig
Léo Teixeira Felgueiras Aktiv 114 / 98 40% 1 01.11.2026 -
Bruno Ramos Sporting CP Aktiv 115 / 120 40% 1 31.10.2026 -
Bryan Limbombe Maritimo Aktiv 107 / 120 40% 1 29.10.2026 -
Marcos Peña Famalicao Aktiv 101 / 125 40% 1 28.10.2026 -
Chiheb Labidi Nacional Aktiv 132 / 109 40% 3 27.10.2026 -
José Neto Moreirense Aktiv 113 / 111 40% 2 26.10.2026 -
Kevin Vazquez Cruz Azul Aktiv 138 / 129 40% 1 26.10.2026 -
Álvaro Barreal Santos Aktiv 142 / 126 40% 1 24.10.2026 -
Rafik Guitane Estoril Praia Aktiv 127 / 131 40% 1 23.10.2026 -
Jalen Blesa Rio Ave Aktiv 116 / 109 40% 3 22.10.2026 -
Nabil Touaizi Alverca Aktiv 117 / 119 40% 1 21.10.2026 -
Eric Ramires Bragantino Aktiv 140 / 131 40% 2 19.10.2026 Mehr Infos nötig
Andrés Gómez Vasco da Gama Aktiv 141 / 134 40% 2 19.10.2026 -
João Teixeira Porto Aktiv 98 / 122 40% 1 19.10.2026 -
Razvan Balasa Crvena Zvezda Aktiv 146 / 136 40% 1 16.10.2026 -
Naïs Djouahra Arouca Aktiv 131 / 119 40% 1 13.10.2026 -
Nuno Moreira Vasco da Gama Aktiv 142 / 138 40% 2 12.10.2026 -
Pedro Bondo Famalicao Aktiv 109 / 131 40% 1 12.10.2026 -
Juanda Fuentes Penafiel Aktiv 106 / 98 40% 1 12.10.2026 -
Valery Académico de Viseu Aktiv 136 / 109 40% 2 10.10.2026 -
Vangelis Pavlidis Twente Aktiv 159 / 159 40% 1 08.10.2026 -
Juan María Alcedo Torreense Aktiv 128 / 104 40% 1 05.10.2026 -
Daniel Júnior Nacional Aktiv 118 / 106 40% 1 04.10.2026 -
Matheuzinho Corinthians Aktiv 138 / 120 40% 1 03.10.2026 -
Gabri Martínez Braga Aktiv 127 / 129 40% 1 01.10.2026 -
MT Santa Clara Aktiv 130 / 126 40% 2 27.09.2026 -
Tony Strata Vitoria Guimaraes Aktiv 108 / 116 40% 1 26.09.2026 -
Luis Sinisterra Cruzeiro Aktiv 137 / 132 40% 1 26.09.2026 -
Vinicinho Bragantino Aktiv 131 / 129 40% 2 25.09.2026 -
Alan Lescano Argentinos Juniors Aktiv 129 / 128 40% 2 23.09.2026 -
Jordan van der Gaag Leiria Aktiv 125 / 115 40% 1 18.09.2026 -
Soma Anzai FC Tokyo Aktiv 122 / 119 40% 1 17.09.2026 -
Caio Alexandre Bahia Aktiv 146 / 134 40% 1 15.09.2026 -
Rémi Lemoine Chamois Niortais Aktiv 157 / 147 40% 1 10.09.2026 -
Facundo Cáseres Gil Vicente Aktiv 116 / 118 40% 1 09.09.2026 -
Victor Froholdt Porto Aktiv 145 / 149 40% 1 08.09.2026 -
Óscar Rivas Vitoria Guimaraes Aktiv 122 / 107 40% 1 05.08.2026 -
Sikou Niakaté Braga Aktiv 143 / 147 40% 1 04.08.2026 -
Javi Sánchez Arouca Aktiv 134 / 141 40% 1 04.08.2026 -
Tidjany Touré Gil Vicente Aktiv 106 / 114 40% 1 02.08.2026 -
Weverson Gil Vicente Aktiv 102 / 120 40% 1 01.08.2026 -
Makan Aïko Tondela Aktiv 104 / 123 40% 1 01.08.2026 -